createdAt,value
2022-07-25T00:00:12.969Z,6.97
2022-07-25T00:02:40.963Z,6.07
2022-07-25T00:05:11.341Z,6.90
2022-07-25T00:07:44.434Z,6.45
2022-07-25T00:10:18.242Z,6.32
2022-07-25T00:12:46.278Z,6.90
2022-07-25T00:15:14.326Z,8.13
2022-07-25T00:17:42.167Z,7.65
2022-07-25T00:20:10.173Z,7.50
2022-07-25T00:22:37.987Z,7.05
2022-07-25T00:25:06.098Z,7.20
2022-07-25T00:27:33.725Z,7.20
2022-07-25T00:30:08.076Z,7.10
2022-07-25T00:32:35.872Z,7.03
2022-07-25T00:35:04.055Z,7.25
2022-07-25T00:37:31.768Z,7.05
2022-07-25T00:39:59.405Z,6.82
2022-07-25T00:42:29.836Z,6.78
2022-07-25T00:44:57.620Z,7.15
2022-07-25T00:47:25.437Z,6.90
2022-07-25T00:49:54.680Z,7.40
2022-07-25T00:52:25.279Z,6.97
2022-07-25T00:54:53.146Z,7.15
2022-07-25T00:57:20.701Z,6.57
2022-07-25T00:59:48.404Z,6.43
2022-07-25T01:02:16.208Z,7.07
2022-07-25T01:04:44.516Z,6.95
2022-07-25T01:07:15.246Z,6.73
2022-07-25T01:09:43.303Z,6.68
2022-07-25T01:12:12.051Z,6.10
2022-07-25T01:14:39.768Z,7.03
2022-07-25T01:17:07.570Z,6.35
2022-07-25T01:19:35.311Z,6.38
2022-07-25T01:22:06.035Z,6.38
2022-07-25T01:24:35.581Z,6.40
2022-07-25T01:27:05.477Z,6.40
2022-07-25T01:29:36.123Z,6.43
2022-07-25T01:32:05.085Z,6.47
2022-07-25T01:34:32.762Z,6.03
2022-07-25T01:37:03.010Z,6.10
2022-07-25T01:39:30.660Z,5.93
2022-07-25T01:41:58.383Z,6.10
2022-07-25T01:44:28.484Z,6.70
2022-07-25T01:46:56.126Z,6.45
2022-07-25T01:49:25.889Z,6.00
2022-07-25T01:51:56.496Z,6.45
2022-07-25T01:54:24.403Z,7.13
2022-07-25T01:56:52.775Z,7.25
2022-07-25T01:59:20.628Z,7.35
2022-07-25T02:01:48.316Z,7.40
2022-07-25T02:04:18.828Z,7.40
2022-07-25T02:06:46.676Z,7.38
2022-07-25T02:09:14.347Z,8.20
2022-07-25T02:11:49.310Z,8.60
2022-07-25T02:14:18.154Z,7.10
2022-07-25T02:16:48.152Z,7.60
2022-07-25T02:19:18.611Z,8.48
2022-07-25T02:21:46.312Z,7.80
2022-07-25T02:24:13.984Z,7.73
2022-07-25T02:26:41.706Z,8.25
2022-07-25T02:29:09.460Z,8.45
2022-07-25T02:31:37.099Z,8.25
2022-07-25T02:34:07.677Z,7.80
2022-07-25T02:36:35.779Z,7.80
2022-07-25T02:39:04.093Z,7.90
2022-07-25T02:41:31.941Z,7.95
2022-07-25T02:44:02.165Z,7.80
2022-07-25T02:46:30.112Z,8.00
2022-07-25T02:48:57.939Z,8.47
2022-07-25T02:51:26.049Z,8.10
2022-07-25T02:53:58.429Z,7.63
2022-07-25T02:56:30.347Z,7.05
2022-07-25T02:58:59.748Z,6.65
2022-07-25T03:01:27.760Z,6.03
2022-07-25T03:03:56.049Z,6.13
2022-07-25T03:06:23.794Z,6.23
2022-07-25T03:08:51.508Z,5.90
2022-07-25T03:11:19.278Z,5.88
2022-07-25T03:13:46.903Z,6.10
2022-07-25T03:16:16.854Z,5.85
2022-07-25T03:18:44.590Z,6.10
2022-07-25T03:21:12.310Z,6.07
2022-07-25T03:23:42.162Z,6.30
2022-07-25T03:26:10.091Z,6.88
2022-07-25T03:28:59.979Z,6.30
2022-07-25T03:31:28.712Z,5.83
2022-07-25T03:33:57.055Z,5.97
2022-07-25T03:36:24.958Z,5.70
2022-07-25T03:38:52.600Z,6.43
2022-07-25T03:41:20.420Z,5.85
2022-07-25T03:43:48.112Z,5.93
2022-07-25T03:46:18.293Z,6.20
2022-07-25T03:48:49.143Z,5.40
2022-07-25T03:51:16.937Z,5.30
2022-07-25T03:54:02.957Z,6.20
2022-07-25T03:56:45.226Z,5.47
2022-07-25T03:59:17.746Z,6.22
2022-07-25T04:01:47.018Z,5.88
2022-07-25T04:04:15.040Z,6.00
2022-07-25T04:06:42.775Z,5.70
2022-07-25T04:09:11.639Z,5.78
2022-07-25T04:11:39.713Z,6.00
2022-07-25T04:14:08.169Z,5.93
2022-07-25T04:16:39.845Z,5.68
2022-07-25T04:19:07.906Z,5.70
2022-07-25T04:21:37.119Z,6.05
2022-07-25T04:24:05.149Z,6.00
2022-07-25T04:26:33.062Z,5.80
2022-07-25T04:29:03.645Z,5.78
2022-07-25T04:31:31.376Z,6.05
2022-07-25T04:34:00.373Z,5.27
2022-07-25T04:36:30.243Z,6.17
2022-07-25T04:39:00.558Z,6.05
2022-07-25T04:41:30.642Z,6.38
2022-07-25T04:43:58.920Z,6.32
2022-07-25T04:46:26.611Z,6.18
2022-07-25T04:48:54.477Z,6.57
2022-07-25T04:51:22.256Z,6.40
2022-07-25T04:53:50.096Z,6.60
2022-07-25T04:56:18.050Z,6.63
2022-07-25T04:58:45.736Z,6.47
2022-07-25T05:01:13.509Z,6.47
2022-07-25T05:03:41.255Z,6.10
2022-07-25T05:06:19.771Z,6.32
2022-07-25T05:08:48.022Z,6.45
2022-07-25T05:11:15.756Z,7.40
2022-07-25T05:13:46.307Z,7.10
2022-07-25T05:16:14.141Z,6.80
2022-07-25T05:18:41.835Z,7.28
2022-07-25T05:21:18.103Z,7.80
